createdAt,value
2022-08-03T00:01:48.195Z,16.20
2022-08-03T00:04:14.701Z,16.20
2022-08-03T00:06:41.248Z,16.20
2022-08-03T00:09:07.765Z,16.20
2022-08-03T00:11:34.267Z,16.20
2022-08-03T00:14:00.841Z,16.20
2022-08-03T00:16:27.353Z,16.20
2022-08-03T00:18:53.875Z,16.10
2022-08-03T00:21:20.374Z,16.10
2022-08-03T00:23:51.146Z,16.10
2022-08-03T00:26:19.170Z,16.00
2022-08-03T00:28:45.690Z,16.00
2022-08-03T00:31:13.519Z,16.00
2022-08-03T00:33:59.702Z,15.90
2022-08-03T00:36:26.837Z,15.90
2022-08-03T00:38:53.370Z,15.80
2022-08-03T00:41:19.901Z,15.80
2022-08-03T00:43:46.409Z,15.80
2022-08-03T00:46:16.302Z,15.80
2022-08-03T00:48:45.669Z,15.70
2022-08-03T00:51:12.179Z,15.70
2022-08-03T00:53:38.721Z,15.70
2022-08-03T00:56:05.222Z,15.70
2022-08-03T00:58:31.726Z,15.70
2022-08-03T01:00:58.390Z,15.60
2022-08-03T01:03:24.944Z,15.60
2022-08-03T01:05:51.473Z,15.60
2022-08-03T01:08:17.969Z,15.60
2022-08-03T01:10:44.478Z,15.50
2022-08-03T01:13:59.115Z,15.50
2022-08-03T01:15:57.510Z,15.50
2022-08-03T01:18:24.028Z,15.50
2022-08-03T01:20:50.534Z,15.50
2022-08-03T01:23:17.039Z,15.40
2022-08-03T01:25:43.674Z,15.40
2022-08-03T01:28:10.234Z,15.30
2022-08-03T01:30:37.906Z,15.30
2022-08-03T01:33:04.934Z,15.20
2022-08-03T01:35:31.839Z,15.20
2022-08-03T01:37:58.390Z,15.20
2022-08-03T01:40:24.902Z,15.20
2022-08-03T01:42:51.451Z,15.10
2022-08-03T01:45:17.989Z,15.10
2022-08-03T01:47:44.494Z,15.10
2022-08-03T01:50:10.998Z,15.10
2022-08-03T01:52:37.555Z,15.10
2022-08-03T01:55:04.054Z,15.10
2022-08-03T01:57:30.568Z,15.10
2022-08-03T01:59:57.111Z,15.10
2022-08-03T02:02:33.312Z,15.10
2022-08-03T02:05:01.083Z,15.00
2022-08-03T02:07:27.593Z,15.00
2022-08-03T02:09:54.099Z,15.00
2022-08-03T02:12:20.629Z,15.00
2022-08-03T02:14:47.125Z,15.00
2022-08-03T02:17:13.622Z,14.90
2022-08-03T02:19:40.142Z,14.90
2022-08-03T02:22:06.665Z,14.90
2022-08-03T02:24:33.388Z,14.80
2022-08-03T02:26:59.892Z,14.80
2022-08-03T02:29:40.406Z,14.80
2022-08-03T02:32:07.440Z,14.80
2022-08-03T02:34:33.949Z,14.80
2022-08-03T02:37:00.517Z,14.70
2022-08-03T02:39:27.037Z,14.70
2022-08-03T02:41:53.529Z,14.70
2022-08-03T02:44:20.069Z,14.70
2022-08-03T02:46:46.591Z,14.60
2022-08-03T02:49:42.138Z,14.60
2022-08-03T02:51:59.632Z,14.60
2022-08-03T02:54:26.132Z,14.70
2022-08-03T02:56:52.688Z,14.60
2022-08-03T02:59:19.226Z,14.70
2022-08-03T03:01:45.745Z,14.60
2022-08-03T03:04:12.234Z,14.60
2022-08-03T03:06:39.561Z,14.60
2022-08-03T03:09:06.362Z,14.50
2022-08-03T03:11:32.909Z,14.60
2022-08-03T03:13:59.468Z,14.50
2022-08-03T03:16:25.995Z,14.50
2022-08-03T03:18:52.575Z,14.50
2022-08-03T03:21:19.079Z,14.40
2022-08-03T03:23:45.573Z,14.40
2022-08-03T03:26:12.101Z,14.40
2022-08-03T03:28:38.625Z,14.40
2022-08-03T03:31:05.181Z,14.30
2022-08-03T03:33:31.765Z,14.40
2022-08-03T03:35:58.275Z,14.30
2022-08-03T03:38:24.858Z,14.30
2022-08-03T03:40:51.471Z,14.30
2022-08-03T03:43:17.978Z,14.30
2022-08-03T03:45:44.533Z,14.30
2022-08-03T03:48:11.035Z,14.20
2022-08-03T03:50:37.562Z,14.20
2022-08-03T03:53:04.103Z,14.20
2022-08-03T03:55:30.668Z,14.30
2022-08-03T03:57:57.166Z,14.20
2022-08-03T04:00:23.689Z,14.20
2022-08-03T04:02:50.217Z,14.20
2022-08-03T04:05:16.717Z,14.20
2022-08-03T04:07:43.255Z,14.10
2022-08-03T04:10:14.577Z,14.10
2022-08-03T04:12:49.147Z,14.00
2022-08-03T04:15:17.180Z,14.00
2022-08-03T04:17:43.773Z,14.00
2022-08-03T04:20:10.310Z,14.00
2022-08-03T04:22:36.830Z,14.10
2022-08-03T04:25:03.389Z,14.00
2022-08-03T04:27:29.905Z,14.00
2022-08-03T04:29:56.434Z,14.10
2022-08-03T04:32:22.961Z,14.10
2022-08-03T04:34:49.496Z,14.10
2022-08-03T04:37:16.003Z,14.10
2022-08-03T04:39:42.504Z,14.20
2022-08-03T04:42:09.238Z,14.20
2022-08-03T04:44:35.840Z,14.20
2022-08-03T04:47:02.363Z,14.20
2022-08-03T04:49:29.015Z,14.20
2022-08-03T04:51:55.582Z,14.20
2022-08-03T04:54:22.162Z,14.30
2022-08-03T04:56:48.697Z,14.30
2022-08-03T04:59:15.217Z,14.40
2022-08-03T05:01:41.747Z,14.40
2022-08-03T05:04:08.386Z,14.40
2022-08-03T05:06:34.902Z,14.50
2022-08-03T05:09:01.895Z,14.50
2022-08-03T05:11:28.545Z,14.50
2022-08-03T05:13:55.061Z,14.60
2022-08-03T05:16:21.564Z,14.60
2022-08-03T05:18:50.562Z,14.60
2022-08-03T05:21:17.176Z,14.60
2022-08-03T05:23:43.680Z,14.70
2022-08-03T05:26:10.213Z,14.70
2022-08-03T05:28:36.719Z,14.80
2022-08-03T05:31:03.233Z,14.80
2022-08-03T05:33:29.774Z,14.90
2022-08-03T05:36:03.317Z,15.00
2022-08-03T05:38:34.206Z,15.00
2022-08-03T05:41:22.399Z,15.10
2022-08-03T05:43:48.539Z,15.20
2022-08-03T05:46:15.119Z,15.30
2022-08-03T05:48:41.631Z,15.40
2022-08-03T05:51:08.193Z,15.40
2022-08-03T05:53:34.708Z,15.50
2022-08-03T05:56:03.589Z,15.50
2022-08-03T05:58:42.276Z,15.60
2022-08-03T06:01:08.886Z,15.80
2022-08-03T06:03:35.458Z,15.80
2022-08-03T06:06:01.982Z,15.90
2022-08-03T06:08:28.504Z,16.00
2022-08-03T06:10:55.100Z,16.10
2022-08-03T06:13:21.598Z,16.20
2022-08-03T06:15:48.151Z,16.30
2022-08-03T06:18:14.778Z,16.40
2022-08-03T06:20:41.306Z,16.50
2022-08-03T06:23:08.242Z,16.70
2022-08-03T06:25:42.827Z,16.70
2022-08-03T06:28:12.134Z,16.80
2022-08-03T06:30:50.261Z,16.90
2022-08-03T06:33:16.828Z,17.00
2022-08-03T06:35:43.321Z,17.20
2022-08-03T06:38:11.774Z,17.30
2022-08-03T06:40:38.347Z,17.40
2022-08-03T06:43:06.112Z,17.50
2022-08-03T06:45:36.060Z,17.70
2022-08-03T06:48:02.614Z,17.80
2022-08-03T06:50:29.132Z,18.00
2022-08-03T06:52:55.712Z,18.10
2022-08-03T06:55:22.219Z,18.20
2022-08-03T06:57:48.732Z,18.40
2022-08-03T07:00:15.261Z,18.50
2022-08-03T07:02:41.841Z,18.70
2022-08-03T07:05:08.347Z,18.80
2022-08-03T07:07:34.956Z,19.00
2022-08-03T07:10:02.368Z,19.10
2022-08-03T07:12:29.451Z,19.20
2022-08-03T07:15:00.414Z,19.40
2022-08-03T07:17:28.106Z,19.50
2022-08-03T07:19:54.613Z,19.70
2022-08-03T07:22:21.144Z,19.80
2022-08-03T07:24:47.647Z,19.90
2022-08-03T07:27:14.190Z,20.00
2022-08-03T07:29:40.888Z,20.20
2022-08-03T07:32:07.439Z,20.30
2022-08-03T07:34:33.997Z,20.40
2022-08-03T07:37:00.521Z,20.50
2022-08-03T07:39:27.044Z,20.60
2022-08-03T07:41:53.586Z,20.80
2022-08-03T07:44:20.117Z,20.90
2022-08-03T07:46:46.720Z,20.90
2022-08-03T07:49:13.322Z,21.00
2022-08-03T07:51:39.907Z,21.10
2022-08-03T07:54:06.513Z,21.20
2022-08-03T07:56:33.910Z,21.30
2022-08-03T07:59:00.442Z,21.40
2022-08-03T08:01:27.055Z,21.50
2022-08-03T08:03:53.868Z,21.50
2022-08-03T08:06:20.436Z,21.60
2022-08-03T08:08:46.985Z,21.70
2022-08-03T08:11:13.500Z,21.80
2022-08-03T08:13:40.005Z,21.80
2022-08-03T08:16:06.506Z,21.90
2022-08-03T08:18:33.034Z,22.00
2022-08-03T08:20:59.530Z,22.00
2022-08-03T08:23:42.885Z,22.10
2022-08-03T08:26:10.803Z,22.20
2022-08-03T08:28:37.361Z,22.30
2022-08-03T08:31:03.930Z,22.30
2022-08-03T08:33:48.017Z,22.40
2022-08-03T08:36:16.970Z,22.50
2022-08-03T08:38:43.485Z,22.50
2022-08-03T08:41:09.977Z,22.60
2022-08-03T08:43:36.502Z,22.70
2022-08-03T08:46:03.004Z,22.70
2022-08-03T08:48:29.498Z,22.70
2022-08-03T08:50:56.070Z,22.80
2022-08-03T08:53:27.313Z,22.80
2022-08-03T08:56:00.146Z,22.90
2022-08-03T08:58:27.142Z,22.90
2022-08-03T09:00:53.690Z,23.00
2022-08-03T09:03:22.635Z,23.10
2022-08-03T09:05:57.097Z,23.20
2022-08-03T09:08:23.671Z,23.20
2022-08-03T09:10:50.172Z,23.20
2022-08-03T09:13:16.771Z,23.30
2022-08-03T09:16:00.631Z,23.30
2022-08-03T09:18:27.930Z,23.30
2022-08-03T09:21:03.811Z,23.40
2022-08-03T09:24:01.630Z,23.40
2022-08-03T09:26:29.662Z,23.40
2022-08-03T09:29:01.720Z,23.50
2022-08-03T09:31:30.510Z,23.60
2022-08-03T09:33:57.034Z,23.60
2022-08-03T09:36:23.549Z,23.70
2022-08-03T09:38:50.321Z,23.70
2022-08-03T09:41:16.886Z,23.70
2022-08-03T09:43:43.404Z,23.70
2022-08-03T09:46:09.897Z,23.70
2022-08-03T09:48:36.429Z,23.70
2022-08-03T09:51:12.511Z,23.70
2022-08-03T09:53:42.075Z,23.70
2022-08-03T09:56:36.451Z,23.80
2022-08-03T09:59:03.556Z,24.00
2022-08-03T10:01:30.210Z,24.00
2022-08-03T10:04:04.322Z,24.20
2022-08-03T10:06:34.277Z,24.20
2022-08-03T10:09:00.774Z,24.20
2022-08-03T10:11:27.285Z,24.30
2022-08-03T10:14:01.137Z,24.40
2022-08-03T10:16:28.259Z,24.40
2022-08-03T10:18:54.810Z,24.50
2022-08-03T10:21:21.326Z,24.60
2022-08-03T10:23:47.847Z,24.60
2022-08-03T10:26:14.361Z,24.60
2022-08-03T10:28:45.076Z,24.70
2022-08-03T10:31:12.100Z,24.70
2022-08-03T10:33:51.197Z,24.70
2022-08-03T10:36:19.189Z,24.80
2022-08-03T10:38:45.698Z,24.80
2022-08-03T10:41:12.197Z,24.90
2022-08-03T10:43:38.788Z,24.90
2022-08-03T10:46:05.284Z,24.90
2022-08-03T10:48:31.781Z,24.90
2022-08-03T10:50:58.352Z,25.00
2022-08-03T10:53:25.001Z,25.00
2022-08-03T10:55:51.893Z,25.00
2022-08-03T10:58:25.202Z,25.00
2022-08-03T11:00:57.277Z,25.00
2022-08-03T11:03:23.859Z,25.20
2022-08-03T11:05:50.404Z,25.20
2022-08-03T11:08:17.504Z,25.20
2022-08-03T11:10:44.010Z,25.30
2022-08-03T11:13:10.506Z,25.30
2022-08-03T11:15:38.341Z,25.40
2022-08-03T11:18:04.879Z,25.50
2022-08-03T11:20:33.729Z,25.50
2022-08-03T11:23:00.298Z,25.60
2022-08-03T11:25:53.737Z,25.70
2022-08-03T11:28:13.348Z,25.70
2022-08-03T11:30:41.299Z,25.70
2022-08-03T11:33:07.809Z,25.70
2022-08-03T11:35:34.350Z,25.70
2022-08-03T11:38:03.084Z,25.70
2022-08-03T11:40:31.667Z,25.70
2022-08-03T11:42:58.189Z,25.80
2022-08-03T11:45:24.705Z,25.90
2022-08-03T11:47:51.611Z,25.90
2022-08-03T11:50:18.190Z,25.80
2022-08-03T11:52:44.689Z,25.90
2022-08-03T11:55:11.204Z,26.00
2022-08-03T11:59:16.499Z,26.10
2022-08-03T12:00:24.223Z,26.10
2022-08-03T12:02:52.721Z,26.20
2022-08-03T12:05:19.261Z,26.30
2022-08-03T12:08:03.995Z,26.30
2022-08-03T12:10:32.294Z,26.30
2022-08-03T12:12:58.825Z,26.40
2022-08-03T12:15:25.355Z,26.40
2022-08-03T12:17:54.819Z,26.30
2022-08-03T12:20:34.858Z,26.30
2022-08-03T12:23:01.836Z,26.40
2022-08-03T12:25:39.069Z,26.60
2022-08-03T12:28:06.470Z,26.60
2022-08-03T12:30:52.973Z,26.40
2022-08-03T12:33:19.506Z,26.50
2022-08-03T12:35:52.282Z,26.60
2022-08-03T12:38:19.866Z,26.70
2022-08-03T12:40:46.386Z,26.80
2022-08-03T12:43:12.893Z,26.80
2022-08-03T12:45:39.419Z,26.80
2022-08-03T12:48:05.946Z,26.70
2022-08-03T12:50:32.520Z,26.70
2022-08-03T12:52:59.130Z,26.70
2022-08-03T12:55:25.632Z,26.70
2022-08-03T12:57:52.135Z,26.70
2022-08-03T13:00:21.760Z,26.60
2022-08-03T13:03:26.618Z,26.60
2022-08-03T13:05:42.729Z,26.70
2022-08-03T13:08:09.250Z,26.80
2022-08-03T13:10:38.128Z,27.00
2022-08-03T13:13:04.677Z,27.10
2022-08-03T13:15:38.626Z,27.00
2022-08-03T13:18:14.423Z,27.20
2022-08-03T13:20:43.930Z,27.30
2022-08-03T13:23:15.354Z,27.40
2022-08-03T13:25:55.082Z,27.60
2022-08-03T13:28:22.526Z,27.70
2022-08-03T13:30:49.065Z,27.80
2022-08-03T13:33:15.564Z,28.00
2022-08-03T13:35:42.079Z,28.00
2022-08-03T13:38:08.709Z,28.00
2022-08-03T13:40:41.507Z,28.00
2022-08-03T13:43:08.437Z,27.90
2022-08-03T13:45:34.964Z,27.80
2022-08-03T13:48:01.459Z,27.80
2022-08-03T13:50:27.961Z,27.70
2022-08-03T13:52:54.484Z,27.70
2022-08-03T13:55:21.003Z,27.70
2022-08-03T13:58:02.670Z,27.60
2022-08-03T14:00:33.514Z,27.60
2022-08-03T14:03:13.886Z,27.50
2022-08-03T14:05:41.015Z,27.50
2022-08-03T14:08:07.565Z,27.70
2022-08-03T14:10:34.144Z,27.80
2022-08-03T14:13:00.712Z,28.00
2022-08-03T14:15:27.238Z,28.30
2022-08-03T14:17:53.771Z,28.50
2022-08-03T14:20:38.443Z,28.80
2022-08-03T14:23:05.623Z,29.20
2022-08-03T14:25:32.274Z,29.50
2022-08-03T14:28:11.028Z,29.80
2022-08-03T15:23:23.486Z,36.40
2022-08-03T15:26:30.524Z,36.10
2022-08-03T15:30:05.678Z,35.70
2022-08-03T15:32:23.933Z,35.30
2022-08-03T15:35:10.777Z,34.80
2022-08-03T15:37:57.631Z,34.30
2022-08-03T15:40:44.463Z,33.70
2022-08-03T15:43:31.314Z,33.10
2022-08-03T15:46:33.552Z,32.60
2022-08-03T15:49:20.384Z,32.00
2022-08-03T15:52:07.214Z,31.50
2022-08-03T15:54:54.046Z,31.00
2022-08-03T15:59:03.690Z,30.50
2022-08-03T16:00:47.676Z,30.20
2022-08-03T16:03:34.516Z,30.10
2022-08-03T16:06:29.890Z,30.00
2022-08-03T16:09:23.712Z,29.90
2022-08-03T16:12:29.455Z,29.80
2022-08-03T16:15:16.338Z,29.70
2022-08-03T16:18:03.166Z,29.70
2022-08-03T16:20:50.010Z,29.50
2022-08-03T16:23:36.828Z,29.50
2022-08-03T16:26:24.842Z,29.30
2022-08-03T16:29:23.188Z,29.20
2022-08-03T16:32:10.574Z,29.10
2022-08-03T16:34:57.400Z,29.10
2022-08-03T16:37:54.648Z,29.10
2022-08-03T16:40:43.502Z,29.30
2022-08-03T16:43:30.368Z,29.50
2022-08-03T16:46:17.206Z,29.60
2022-08-03T16:49:04.066Z,29.60
2022-08-03T16:51:51.143Z,29.50
2022-08-03T16:54:38.146Z,29.30
2022-08-03T16:57:55.855Z,29.10
2022-08-03T17:00:34.299Z,28.90
2022-08-03T17:03:27.953Z,28.70
2022-08-03T17:06:34.159Z,28.60
2022-08-03T17:09:21.650Z,28.40
2022-08-03T17:12:10.885Z,28.30
2022-08-03T17:14:57.907Z,28.20
2022-08-03T17:17:53.377Z,28.30
2022-08-03T17:20:40.769Z,28.30
2022-08-03T17:23:35.383Z,28.20
2022-08-03T17:26:22.649Z,28.00
2022-08-03T17:29:17.287Z,27.70
2022-08-03T17:32:09.224Z,27.50
2022-08-03T17:34:56.987Z,27.20
2022-08-03T17:37:57.557Z,26.90
2022-08-03T17:40:49.983Z,26.70
2022-08-03T17:44:12.981Z,26.50
2022-08-03T17:46:45.510Z,26.30
2022-08-03T17:49:39.835Z,26.00
2022-08-03T17:52:27.150Z,25.80
2022-08-03T17:55:57.042Z,25.70
2022-08-03T17:58:20.942Z,25.50
2022-08-03T18:02:00.479Z,25.40
2022-08-03T18:04:14.668Z,25.30
2022-08-03T18:07:11.591Z,25.10
2022-08-03T18:10:04.495Z,25.00
2022-08-03T18:12:52.339Z,24.80
2022-08-03T18:15:40.273Z,24.70
2022-08-03T18:18:29.339Z,24.60
2022-08-03T18:21:19.618Z,24.40
2022-08-03T18:24:06.443Z,24.20
2022-08-03T18:26:56.698Z,24.10
2022-08-03T18:29:44.041Z,24.00
2022-08-03T18:32:30.902Z,23.90
2022-08-03T18:35:19.646Z,23.70
2022-08-03T18:38:11.615Z,23.60
2022-08-03T18:41:12.696Z,23.50
2022-08-03T18:44:08.449Z,23.40
2022-08-03T18:47:16.801Z,23.20
2022-08-03T18:50:03.867Z,23.10
2022-08-03T18:52:53.382Z,23.00
2022-08-03T18:55:40.357Z,22.80
2022-08-03T18:58:47.181Z,22.70
2022-08-03T19:01:59.115Z,22.60
2022-08-03T19:04:45.846Z,22.40
2022-08-03T19:07:35.919Z,22.40
2022-08-03T19:10:23.050Z,22.20
2022-08-03T19:13:11.493Z,22.10
2022-08-03T19:15:51.111Z,22.00
2022-08-03T19:18:18.236Z,21.90
2022-08-03T19:20:46.799Z,21.80
2022-08-03T19:23:13.448Z,21.70
2022-08-03T19:25:40.630Z,21.60
2022-08-03T19:28:08.021Z,21.60
2022-08-03T19:30:34.536Z,21.50
2022-08-03T19:33:01.062Z,21.40
2022-08-03T19:35:51.883Z,21.30
2022-08-03T19:38:14.059Z,21.20
2022-08-03T19:40:50.946Z,21.20
2022-08-03T19:43:17.742Z,21.10
2022-08-03T19:46:04.786Z,21.00
2022-08-03T19:48:30.769Z,20.90
2022-08-03T19:50:57.355Z,20.80
2022-08-03T19:53:35.208Z,20.70
2022-08-03T19:56:02.497Z,20.70
2022-08-03T19:58:29.005Z,20.70
2022-08-03T20:00:55.926Z,20.60
2022-08-03T20:03:23.380Z,20.60
2022-08-03T20:05:52.173Z,20.50
2022-08-03T20:08:20.767Z,20.40
2022-08-03T20:10:47.270Z,20.30
2022-08-03T20:13:14.490Z,20.20
2022-08-03T20:15:45.958Z,20.10
2022-08-03T20:18:16.771Z,20.00
2022-08-03T20:20:43.630Z,20.00
2022-08-03T20:23:10.142Z,19.90
2022-08-03T20:25:39.003Z,19.80
2022-08-03T20:28:08.087Z,19.80
2022-08-03T20:30:42.528Z,19.70
2022-08-03T20:33:09.688Z,19.60
2022-08-03T20:35:36.210Z,19.60
2022-08-03T20:38:03.151Z,19.50
2022-08-03T20:40:29.718Z,19.40
2022-08-03T20:42:56.227Z,19.30
2022-08-03T20:45:59.604Z,19.30
2022-08-03T20:48:09.226Z,19.20
2022-08-03T20:50:35.743Z,19.10
2022-08-03T20:53:02.581Z,19.10
2022-08-03T20:55:47.993Z,19.00
2022-08-03T20:58:15.897Z,19.00
2022-08-03T21:00:43.175Z,18.90
2022-08-03T21:03:09.769Z,18.90
2022-08-03T21:05:51.166Z,18.80
2022-08-03T21:08:19.889Z,18.80
2022-08-03T21:10:46.422Z,18.70
2022-08-03T21:13:17.764Z,18.60
2022-08-03T21:16:06.469Z,18.60
2022-08-03T21:18:31.369Z,18.50
2022-08-03T21:20:58.270Z,18.40
2022-08-03T21:23:35.088Z,18.40
2022-08-03T21:26:08.049Z,18.30
2022-08-03T21:28:34.548Z,18.20
2022-08-03T21:31:01.056Z,18.20
2022-08-03T21:33:27.553Z,18.10
2022-08-03T21:35:54.049Z,18.10
2022-08-03T21:38:20.563Z,18.00
2022-08-03T21:40:56.090Z,17.90
2022-08-03T21:43:22.633Z,17.90
2022-08-03T21:45:49.132Z,17.80
2022-08-03T21:48:15.667Z,17.80
2022-08-03T21:50:42.165Z,17.70
2022-08-03T21:53:08.666Z,17.70
2022-08-03T21:55:35.177Z,17.70
2022-08-03T21:58:01.790Z,17.70
2022-08-03T22:00:28.316Z,17.70
2022-08-03T22:02:55.425Z,17.60
2022-08-03T22:05:28.919Z,17.60
2022-08-03T22:08:08.610Z,17.50
2022-08-03T22:10:35.114Z,17.50
2022-08-03T22:13:01.610Z,17.40
2022-08-03T22:15:28.137Z,17.40
2022-08-03T22:17:57.149Z,17.30
2022-08-03T22:20:24.009Z,17.30
2022-08-03T22:22:55.381Z,17.20
2022-08-03T22:25:22.684Z,17.20
2022-08-03T22:27:49.210Z,17.20
2022-08-03T22:30:15.711Z,17.10
2022-08-03T22:32:42.210Z,17.10
2022-08-03T22:35:08.740Z,17.10
2022-08-03T22:37:35.270Z,17.00
2022-08-03T22:40:01.786Z,17.00
2022-08-03T22:42:28.287Z,17.00
2022-08-03T22:44:54.825Z,16.90
2022-08-03T22:47:21.326Z,16.90
2022-08-03T22:49:49.572Z,16.90
2022-08-03T22:52:36.225Z,16.90
2022-08-03T22:55:02.727Z,16.90
2022-08-03T22:57:29.225Z,16.90
2022-08-03T22:59:55.818Z,16.80
2022-08-03T23:02:22.327Z,16.80
2022-08-03T23:04:48.843Z,16.80
2022-08-03T23:07:15.343Z,16.70
2022-08-03T23:09:41.846Z,16.70
2022-08-03T23:12:08.380Z,16.70
2022-08-03T23:14:34.879Z,16.70
2022-08-03T23:17:01.384Z,16.80
2022-08-03T23:19:30.269Z,16.70
2022-08-03T23:22:03.379Z,16.70
2022-08-03T23:24:30.578Z,16.60
2022-08-03T23:26:57.144Z,16.60
2022-08-03T23:29:23.670Z,16.60
2022-08-03T23:31:50.190Z,16.60
2022-08-03T23:34:16.936Z,16.50
2022-08-03T23:36:43.502Z,16.50
2022-08-03T23:39:10.175Z,16.60
2022-08-03T23:41:36.703Z,16.50
2022-08-03T23:44:03.669Z,16.50
2022-08-03T23:46:30.323Z,16.40
2022-08-03T23:48:56.868Z,16.40
2022-08-03T23:51:23.369Z,16.30
2022-08-03T23:53:49.899Z,16.30
2022-08-03T23:56:16.397Z,16.30
2022-08-03T23:58:42.897Z,16.20
